createdAt,value
2018-09-15T00:01:57.817Z,91.00
2018-09-15T00:04:25.451Z,91.20
2018-09-15T00:06:53.389Z,91.50
2018-09-15T00:09:21.054Z,91.60
2018-09-15T00:11:48.685Z,91.70
2018-09-15T00:14:16.354Z,92.20
2018-09-15T00:16:44.155Z,92.30
2018-09-15T00:19:11.850Z,92.30
2018-09-15T00:21:39.496Z,92.20
2018-09-15T00:24:07.862Z,91.90
2018-09-15T00:26:35.665Z,91.50
2018-09-15T00:29:03.343Z,91.30
2018-09-15T00:31:30.983Z,91.20
2018-09-15T00:33:58.827Z,91.30
2018-09-15T00:36:26.600Z,91.20
2018-09-15T00:38:54.264Z,91.30
2018-09-15T00:41:21.916Z,91.10
2018-09-15T00:43:49.639Z,91.10
2018-09-15T00:46:17.393Z,91.40
2018-09-15T00:48:45.193Z,91.70
2018-09-15T00:51:12.799Z,92.10
2018-09-15T00:53:40.390Z,92.00
2018-09-15T00:56:08.008Z,91.80
2018-09-15T00:58:35.646Z,91.70
2018-09-15T01:01:03.543Z,91.50
2018-09-15T01:03:31.217Z,91.20
2018-09-15T01:05:58.807Z,91.10
2018-09-15T01:08:26.443Z,90.70
2018-09-15T01:10:54.239Z,91.10
2018-09-15T01:13:21.878Z,90.80
2018-09-15T01:15:49.487Z,91.10
2018-09-15T01:18:17.147Z,91.40
2018-09-15T01:20:44.842Z,91.40
2018-09-15T01:23:12.452Z,91.50
2018-09-15T01:25:40.369Z,91.40
2018-09-15T01:28:08.085Z,91.60
2018-09-15T01:30:35.709Z,91.30
2018-09-15T01:33:03.479Z,91.30
2018-09-15T01:35:31.097Z,91.60
2018-09-15T01:37:58.775Z,91.70
2018-09-15T01:40:26.525Z,91.70
2018-09-15T01:42:54.096Z,91.70
2018-09-15T01:45:21.737Z,91.70
2018-09-15T01:47:49.336Z,91.40
2018-09-15T01:50:16.996Z,91.40
2018-09-15T01:52:44.635Z,91.30
2018-09-15T01:55:12.253Z,91.20
2018-09-15T01:57:39.913Z,91.20
2018-09-15T02:00:07.651Z,91.20
2018-09-15T02:02:35.306Z,91.50
2018-09-15T02:05:02.985Z,91.70
2018-09-15T02:07:30.614Z,92.00
2018-09-15T02:09:58.380Z,92.20
2018-09-15T02:12:26.100Z,92.20
2018-09-15T02:14:53.746Z,92.20
2018-09-15T02:17:21.396Z,91.70
2018-09-15T02:19:49.014Z,91.50
2018-09-15T02:22:16.700Z,91.40
2018-09-15T02:24:44.337Z,91.10
2018-09-15T02:27:11.973Z,91.10
2018-09-15T02:29:39.847Z,91.00
2018-09-15T02:32:07.491Z,90.90
2018-09-15T02:34:35.118Z,91.00
2018-09-15T02:37:02.761Z,91.10
2018-09-15T02:39:30.397Z,91.80
2018-09-15T02:41:58.032Z,91.50
2018-09-15T02:44:25.752Z,91.60
2018-09-15T02:46:53.429Z,91.70
2018-09-15T02:49:21.063Z,91.50
2018-09-15T02:51:48.737Z,91.50
2018-09-15T02:54:16.577Z,91.40
2018-09-15T02:56:44.200Z,91.80
2018-09-15T02:59:11.822Z,91.90
2018-09-15T03:01:39.468Z,91.70
2018-09-15T03:04:07.119Z,91.80
2018-09-15T03:06:34.821Z,91.80
2018-09-15T03:09:02.561Z,92.10
2018-09-15T03:11:30.262Z,92.00
2018-09-15T03:13:57.879Z,92.10
2018-09-15T03:16:25.537Z,92.10
2018-09-15T03:18:53.557Z,91.70
2018-09-15T03:21:21.264Z,91.50
2018-09-15T03:23:48.878Z,91.50
2018-09-15T03:26:16.463Z,91.30
2018-09-15T03:28:44.101Z,91.40
2018-09-15T03:31:12.019Z,91.40
2018-09-15T03:33:39.823Z,91.00
2018-09-15T03:36:07.443Z,90.80
2018-09-15T03:38:35.241Z,90.20
2018-09-15T03:41:02.896Z,90.30
2018-09-15T03:43:30.516Z,90.30
2018-09-15T03:45:58.154Z,87.10
2018-09-15T03:48:25.783Z,85.70
2018-09-15T03:50:53.406Z,86.10
2018-09-15T03:53:21.053Z,86.50
2018-09-15T03:55:48.690Z,86.20
2018-09-15T03:58:16.573Z,86.40
2018-09-15T04:00:46.983Z,86.40
2018-09-15T04:03:14.609Z,84.90
2018-09-15T04:05:42.270Z,85.20
2018-09-15T04:08:09.952Z,84.80
2018-09-15T04:10:37.568Z,85.20
2018-09-15T04:13:05.188Z,85.80
2018-09-15T04:15:32.823Z,86.10
2018-09-15T04:18:00.422Z,86.20
2018-09-15T04:20:28.078Z,86.20
2018-09-15T04:22:55.685Z,87.00
2018-09-15T04:25:23.361Z,87.40
2018-09-15T04:27:51.020Z,87.50
2018-09-15T04:30:18.666Z,87.70
2018-09-15T04:32:46.273Z,88.10
2018-09-15T04:35:13.852Z,89.20
2018-09-15T04:37:41.491Z,90.00
2018-09-15T04:40:09.317Z,90.20
2018-09-15T04:42:37.024Z,90.30
2018-09-15T04:45:04.690Z,90.50
2018-09-15T04:47:32.310Z,90.70
2018-09-15T04:49:59.925Z,91.10
2018-09-15T04:52:27.629Z,91.40
2018-09-15T04:54:55.318Z,91.70
2018-09-15T04:57:23.386Z,91.40
2018-09-15T04:59:51.137Z,90.80
2018-09-15T05:02:18.852Z,88.70
2018-09-15T05:04:46.490Z,89.00
2018-09-15T05:07:14.236Z,89.20
2018-09-15T05:09:41.803Z,87.90
2018-09-15T05:12:09.572Z,86.30
2018-09-15T05:14:37.149Z,86.60
2018-09-15T05:17:05.056Z,87.10
2018-09-15T05:19:32.964Z,88.70
2018-09-15T05:22:00.583Z,88.50
2018-09-15T05:24:28.227Z,88.80
2018-09-15T05:26:55.812Z,88.80
2018-09-15T05:29:23.592Z,88.10
2018-09-15T05:31:51.363Z,88.60
2018-09-15T05:34:19.049Z,88.60
2018-09-15T05:36:46.659Z,88.40
2018-09-15T05:39:14.274Z,88.10
2018-09-15T05:41:42.458Z,88.30
2018-09-15T05:44:10.555Z,88.20
2018-09-15T05:46:38.606Z,87.90
2018-09-15T05:49:06.285Z,86.90
2018-09-15T05:51:33.971Z,85.20
2018-09-15T05:54:01.750Z,85.20
2018-09-15T05:56:29.654Z,84.30
2018-09-15T05:58:57.527Z,83.40
2018-09-15T06:01:25.669Z,82.40
2018-09-15T06:03:53.373Z,81.80
2018-09-15T06:06:21.055Z,80.30
2018-09-15T06:08:48.671Z,79.60
2018-09-15T06:11:16.377Z,78.50
2018-09-15T06:13:44.206Z,77.70
2018-09-15T06:16:11.912Z,75.60
2018-09-15T06:18:39.625Z,75.60
2018-09-15T06:21:07.227Z,75.00
2018-09-15T06:23:34.861Z,74.70
2018-09-15T06:26:02.487Z,74.60
2018-09-15T06:28:30.304Z,74.60
2018-09-15T06:30:57.997Z,73.20
2018-09-15T06:33:25.997Z,73.70
2018-09-15T06:35:53.641Z,72.60
2018-09-15T06:38:21.279Z,72.80
2018-09-15T06:40:49.240Z,72.90
2018-09-15T06:43:16.849Z,74.30
2018-09-15T06:45:44.502Z,73.90
2018-09-15T06:48:12.059Z,72.00
2018-09-15T06:50:39.689Z,69.20
2018-09-15T06:53:07.354Z,66.40
2018-09-15T06:55:35.106Z,64.10
2018-09-15T06:58:02.711Z,62.10
2018-09-15T07:00:30.310Z,61.90
2018-09-15T07:02:58.299Z,59.50
2018-09-15T07:05:25.925Z,59.10
2018-09-15T07:07:53.630Z,58.10
2018-09-15T07:10:21.355Z,58.40
2018-09-15T07:12:49.018Z,59.00
2018-09-15T07:15:16.861Z,59.50
2018-09-15T07:17:44.467Z,56.10
2018-09-15T07:20:12.072Z,56.50
2018-09-15T07:22:39.744Z,55.00
2018-09-15T07:25:07.559Z,54.00
2018-09-15T07:27:35.179Z,53.50
2018-09-15T07:30:03.017Z,51.90
2018-09-15T07:32:30.695Z,52.00
2018-09-15T07:34:58.315Z,51.80
2018-09-15T07:37:25.948Z,52.80
2018-09-15T07:39:53.791Z,50.80
2018-09-15T07:42:21.675Z,50.40
2018-09-15T07:44:49.347Z,50.80
2018-09-15T07:47:16.949Z,50.20
2018-09-15T07:49:44.607Z,49.60
2018-09-15T07:52:12.248Z,50.90
2018-09-15T07:54:39.978Z,52.10
2018-09-15T07:57:07.836Z,51.90
2018-09-15T07:59:35.490Z,52.00
2018-09-15T08:02:07.851Z,50.80
2018-09-15T08:04:35.472Z,50.30
2018-09-15T08:07:03.167Z,49.90
2018-09-15T08:09:30.812Z,49.30
2018-09-15T08:11:58.446Z,48.30
2018-09-15T08:14:26.113Z,48.10
2018-09-15T08:16:54.019Z,47.30
2018-09-15T08:19:21.731Z,46.20
2018-09-15T08:21:49.504Z,46.90
2018-09-15T08:24:17.126Z,46.70
2018-09-15T08:26:44.721Z,47.30
2018-09-15T08:29:12.601Z,48.70
2018-09-15T08:31:40.233Z,49.70
2018-09-15T08:34:07.863Z,50.90
2018-09-15T08:36:35.493Z,50.40
2018-09-15T08:39:03.680Z,50.70
2018-09-15T08:41:31.301Z,50.50
2018-09-15T08:43:59.084Z,50.80
2018-09-15T08:46:27.557Z,52.00
2018-09-15T08:48:55.183Z,52.20
2018-09-15T08:51:22.908Z,50.80
2018-09-15T08:53:50.496Z,50.30
2018-09-15T08:56:18.212Z,49.10
2018-09-15T08:58:45.828Z,47.90
2018-09-15T09:01:13.429Z,47.70
2018-09-15T09:03:41.119Z,46.50
2018-09-15T09:06:09.125Z,46.20
2018-09-15T09:08:36.756Z,44.10
2018-09-15T09:11:04.357Z,44.40
2018-09-15T09:13:32.229Z,45.00
2018-09-15T09:16:00.961Z,44.70
2018-09-15T09:18:28.606Z,46.50
2018-09-15T09:20:56.337Z,48.00
2018-09-15T09:23:24.003Z,47.00
2018-09-15T09:25:51.773Z,45.90
2018-09-15T09:28:19.382Z,45.80
2018-09-15T09:30:47.050Z,45.70
2018-09-15T09:33:14.828Z,44.20
2018-09-15T09:35:42.565Z,44.10
2018-09-15T09:38:10.310Z,45.10
2018-09-15T09:40:38.183Z,43.80
2018-09-15T09:43:06.414Z,43.40
2018-09-15T09:45:34.805Z,42.10
2018-09-15T09:48:02.886Z,40.60
2018-09-15T09:50:30.617Z,41.60
2018-09-15T09:52:58.804Z,40.10
2018-09-15T09:55:27.618Z,39.40
2018-09-15T09:57:59.319Z,39.40
2018-09-15T10:00:32.642Z,39.50
2018-09-15T10:03:00.442Z,40.10
2018-09-15T10:05:28.058Z,39.20
2018-09-15T10:07:55.855Z,38.30
2018-09-15T10:10:23.528Z,37.80
2018-09-15T10:12:51.329Z,37.30
2018-09-15T10:15:18.984Z,37.30
2018-09-15T10:17:47.181Z,35.60
2018-09-15T10:20:15.193Z,35.20
2018-09-15T10:22:42.827Z,36.30
2018-09-15T10:25:10.706Z,36.00
2018-09-15T10:27:38.311Z,36.40
2018-09-15T10:30:06.078Z,35.40
2018-09-15T10:32:33.768Z,34.80
2018-09-15T10:35:01.972Z,35.90
2018-09-15T10:37:30.304Z,35.20
2018-09-15T10:39:57.987Z,35.40
2018-09-15T10:42:28.898Z,36.60
2018-09-15T10:44:57.679Z,38.00
2018-09-15T10:47:26.171Z,36.00
2018-09-15T10:49:54.678Z,36.60
2018-09-15T10:52:22.595Z,35.90
2018-09-15T10:54:50.562Z,36.50
2018-09-15T10:57:18.273Z,35.20
2018-09-15T10:59:46.517Z,36.00
2018-09-15T11:02:15.085Z,36.80
2018-09-15T11:04:45.015Z,35.40
2018-09-15T11:07:13.898Z,35.70
2018-09-15T11:09:41.659Z,35.60
2018-09-15T11:12:09.646Z,35.60
2018-09-15T11:14:37.360Z,34.00
2018-09-15T11:17:05.698Z,35.00
2018-09-15T11:19:33.374Z,35.40
2018-09-15T11:22:01.332Z,36.50
2018-09-15T11:24:29.373Z,36.80
2018-09-15T11:26:57.289Z,35.90
2018-09-15T11:29:25.181Z,36.70
2018-09-15T11:31:53.051Z,36.40
2018-09-15T11:34:21.078Z,38.20
2018-09-15T11:36:48.787Z,35.50
2018-09-15T11:39:16.419Z,36.50
2018-09-15T11:41:44.412Z,37.10
2018-09-15T11:44:12.159Z,36.90
2018-09-15T11:46:39.878Z,37.70
2018-09-15T11:49:07.520Z,37.00
2018-09-15T11:51:35.103Z,37.10
2018-09-15T11:54:02.879Z,38.10
2018-09-15T11:56:30.552Z,37.60
2018-09-15T11:58:58.163Z,36.20
2018-09-15T12:01:25.786Z,36.70
2018-09-15T12:03:53.525Z,35.60
2018-09-15T12:06:21.185Z,36.50
2018-09-15T12:08:48.848Z,35.70
2018-09-15T12:11:16.571Z,35.90
2018-09-15T12:13:44.230Z,34.90
2018-09-15T12:16:12.254Z,35.20
2018-09-15T12:18:39.962Z,35.20
2018-09-15T12:21:07.989Z,35.50
2018-09-15T12:23:35.795Z,35.80
2018-09-15T12:26:03.569Z,36.40
2018-09-15T12:28:31.268Z,36.00
2018-09-15T12:30:58.930Z,35.20
2018-09-15T12:33:26.635Z,37.20
2018-09-15T12:35:54.371Z,34.10
2018-09-15T12:38:22.747Z,33.90
2018-09-15T12:40:50.655Z,34.50
2018-09-15T12:43:18.361Z,35.00
2018-09-15T12:45:45.998Z,35.70
2018-09-15T12:48:16.123Z,34.30
2018-09-15T12:50:44.006Z,35.30
2018-09-15T12:53:11.772Z,35.30
2018-09-15T12:55:39.613Z,34.40
2018-09-15T12:58:07.852Z,34.80
2018-09-15T13:00:35.628Z,35.30
2018-09-15T13:03:03.424Z,35.10
2018-09-15T13:05:31.050Z,34.60
2018-09-15T13:07:58.657Z,33.60
2018-09-15T13:10:26.393Z,33.40
2018-09-15T13:12:54.126Z,33.50
2018-09-15T13:15:22.068Z,34.50
2018-09-15T13:17:50.172Z,34.40
2018-09-15T13:20:18.130Z,33.10
2018-09-15T13:22:46.013Z,34.20
2018-09-15T13:25:13.793Z,34.60
2018-09-15T13:27:41.471Z,33.00
2018-09-15T13:30:09.352Z,32.00
2018-09-15T13:32:37.104Z,32.60
2018-09-15T13:35:04.908Z,32.30
2018-09-15T13:37:32.536Z,33.40
2018-09-15T13:40:00.276Z,32.60
2018-09-15T13:42:27.906Z,33.40
2018-09-15T13:44:55.723Z,33.20
2018-09-15T13:47:24.018Z,34.50
2018-09-15T13:49:51.664Z,34.10
2018-09-15T13:52:19.567Z,33.70
2018-09-15T13:54:47.355Z,32.90
2018-09-15T13:57:15.082Z,33.00
2018-09-15T13:59:42.739Z,34.00
2018-09-15T14:02:10.442Z,33.70
2018-09-15T14:04:38.303Z,33.20
2018-09-15T14:07:06.111Z,32.50
2018-09-15T14:09:43.286Z,32.40
2018-09-15T14:12:01.842Z,32.70
2018-09-15T14:14:29.514Z,33.20
2018-09-15T14:16:57.240Z,33.20
2018-09-15T14:19:24.858Z,33.30
2018-09-15T14:21:52.551Z,32.50
2018-09-15T14:24:20.271Z,33.00
2018-09-15T14:26:47.911Z,33.60
2018-09-15T14:29:15.664Z,33.40
2018-09-15T14:31:43.344Z,34.10
2018-09-15T14:34:11.305Z,33.80
2018-09-15T14:36:38.954Z,34.40
2018-09-15T14:39:08.461Z,35.60
2018-09-15T14:41:36.216Z,35.40
2018-09-15T14:44:03.859Z,35.60
2018-09-15T14:46:31.600Z,35.30
2018-09-15T14:48:59.210Z,35.80
2018-09-15T14:51:26.989Z,35.40
2018-09-15T14:53:54.638Z,36.70
2018-09-15T14:56:22.306Z,35.50
2018-09-15T14:58:50.191Z,35.30
2018-09-15T15:01:17.795Z,35.80
2018-09-15T15:03:45.474Z,35.30
2018-09-15T15:06:13.496Z,35.10
2018-09-15T15:08:41.180Z,35.20
2018-09-15T15:11:08.900Z,34.80
2018-09-15T15:13:36.599Z,35.60
2018-09-15T15:16:04.273Z,35.30
2018-09-15T15:18:32.777Z,34.40
2018-09-15T15:21:00.538Z,35.10
2018-09-15T15:23:28.240Z,34.00
2018-09-15T15:25:56.320Z,33.80
2018-09-15T15:28:24.039Z,34.80
2018-09-15T15:30:58.594Z,34.60
2018-09-15T15:33:26.326Z,34.50
2018-09-15T15:35:53.976Z,34.40
2018-09-15T15:38:21.836Z,35.50
2018-09-15T15:40:49.513Z,35.30
2018-09-15T15:43:17.240Z,35.80
2018-09-15T15:45:44.892Z,35.60
2018-09-15T15:48:12.644Z,35.70
2018-09-15T15:50:40.310Z,35.60
2018-09-15T15:53:07.992Z,36.10
2018-09-15T15:55:35.662Z,37.60
2018-09-15T15:58:03.339Z,36.60
2018-09-15T16:00:31.052Z,36.60
2018-09-15T16:02:58.800Z,36.90
2018-09-15T16:05:27.376Z,37.20
2018-09-15T16:07:55.034Z,39.30
2018-09-15T16:10:22.772Z,38.30
2018-09-15T16:12:50.721Z,37.40
2018-09-15T16:15:18.720Z,37.60
2018-09-15T16:17:46.583Z,37.90
2018-09-15T16:20:14.504Z,38.30
2018-09-15T16:22:42.177Z,38.30
2018-09-15T16:25:10.290Z,38.00
2018-09-15T16:27:38.157Z,38.70
2018-09-15T16:30:06.335Z,40.30
2018-09-15T16:32:34.008Z,39.10
2018-09-15T16:35:01.649Z,39.50
2018-09-15T16:37:29.360Z,38.50
2018-09-15T16:39:57.966Z,39.60
2018-09-15T16:42:25.761Z,39.10
2018-09-15T16:44:53.440Z,39.80
2018-09-15T16:47:21.154Z,40.20
2018-09-15T16:49:48.991Z,40.00
2018-09-15T16:52:16.733Z,40.50
2018-09-15T16:54:44.561Z,40.20
2018-09-15T16:57:12.560Z,40.60
2018-09-15T16:59:40.845Z,41.70
2018-09-15T17:02:08.634Z,41.40
2018-09-15T17:04:36.414Z,41.70
2018-09-15T17:07:04.143Z,42.20
2018-09-15T17:09:31.999Z,41.90
2018-09-15T17:12:00.046Z,41.60
2018-09-15T17:14:27.774Z,42.10
2018-09-15T17:16:55.613Z,42.30
2018-09-15T17:19:23.398Z,42.90
2018-09-15T17:21:51.072Z,43.00
2018-09-15T17:24:18.782Z,42.80
2018-09-15T17:26:46.762Z,43.10
2018-09-15T17:29:14.791Z,43.60
2018-09-15T17:31:42.579Z,43.40
2018-09-15T17:34:10.410Z,42.70
2018-09-15T17:36:38.170Z,43.50
2018-09-15T17:39:08.760Z,43.80
2018-09-15T17:41:37.599Z,44.10
2018-09-15T17:44:05.673Z,44.10
2018-09-15T17:46:33.501Z,44.40
2018-09-15T17:49:02.878Z,44.50
2018-09-15T17:51:31.495Z,44.90
2018-09-15T17:53:59.702Z,45.50
2018-09-15T17:56:27.485Z,45.70
2018-09-15T17:58:55.199Z,46.30
2018-09-15T18:01:23.145Z,46.50
2018-09-15T18:03:54.365Z,46.90
2018-09-15T18:06:22.034Z,47.70
2018-09-15T18:08:52.762Z,47.80
2018-09-15T18:11:20.837Z,47.40
2018-09-15T18:13:48.632Z,48.20
2018-09-15T18:16:16.382Z,48.30
2018-09-15T18:18:44.732Z,48.40
2018-09-15T18:21:12.415Z,49.10
2018-09-15T18:23:40.155Z,49.10
2018-09-15T18:26:07.945Z,49.10
2018-09-15T18:31:24.874Z,50.30
2018-09-15T18:33:56.042Z,50.50
2018-09-15T18:36:23.683Z,50.80
2018-09-15T18:38:51.572Z,50.90
2018-09-15T18:41:19.740Z,51.10
2018-09-15T18:43:47.881Z,51.30
2018-09-15T18:46:15.890Z,51.40
2018-09-15T18:48:43.965Z,51.30
2018-09-15T18:51:13.676Z,51.00
2018-09-15T18:53:42.453Z,50.40
2018-09-15T18:56:10.776Z,50.50
2018-09-15T18:58:39.176Z,50.60
2018-09-15T19:01:07.248Z,50.70
2018-09-15T19:03:35.285Z,50.80
2018-09-15T19:06:03.360Z,51.60
2018-09-15T19:08:31.436Z,52.20
2018-09-15T19:10:59.542Z,52.60
2018-09-15T19:13:27.591Z,53.00
2018-09-15T19:15:55.506Z,53.10
2018-09-15T19:18:23.759Z,53.30
2018-09-15T19:20:52.807Z,53.00
2018-09-15T19:23:20.741Z,53.20
2018-09-15T19:25:53.853Z,53.20
2018-09-15T19:28:22.097Z,52.90
2018-09-15T19:30:51.432Z,52.80
2018-09-15T19:33:19.673Z,52.80
2018-09-15T19:35:47.747Z,53.50
2018-09-15T19:38:16.046Z,53.90
2018-09-15T19:40:44.158Z,54.20
2018-09-15T19:43:12.243Z,54.40
2018-09-15T19:45:40.473Z,54.50
2018-09-15T19:48:08.557Z,54.90
2018-09-15T19:50:36.616Z,55.30
2018-09-15T19:53:04.751Z,55.20
2018-09-15T19:55:32.879Z,55.20
2018-09-15T19:58:01.051Z,55.60
2018-09-15T20:00:29.143Z,54.90
2018-09-15T20:02:57.312Z,55.10
2018-09-15T20:05:26.437Z,55.00
2018-09-15T20:07:54.433Z,55.60
2018-09-15T20:10:22.503Z,55.20
2018-09-15T20:12:50.654Z,55.30
2018-09-15T20:15:26.823Z,55.80
2018-09-15T20:17:53.778Z,56.50
2018-09-15T20:20:21.409Z,57.00
2018-09-15T20:22:50.555Z,57.40
2018-09-15T20:25:18.824Z,57.90
2018-09-15T20:27:46.880Z,58.20
2018-09-15T20:30:15.198Z,58.60
2018-09-15T20:32:43.565Z,58.90
2018-09-15T20:35:11.683Z,59.40
2018-09-15T20:37:40.133Z,59.70
2018-09-15T20:40:09.339Z,59.90
2018-09-15T20:42:40.061Z,60.40
2018-09-15T20:45:09.626Z,60.90
2018-09-15T20:47:39.132Z,61.30
2018-09-15T20:50:08.097Z,61.60
2018-09-15T20:52:36.164Z,61.90
2018-09-15T20:55:04.465Z,62.30
2018-09-15T20:57:32.459Z,62.30
2018-09-15T21:00:00.672Z,62.50
2018-09-15T21:02:28.780Z,62.50
2018-09-15T21:04:56.782Z,63.00
2018-09-15T21:07:24.780Z,62.90
2018-09-15T21:09:54.193Z,62.90
2018-09-15T21:12:22.227Z,63.70
2018-09-15T21:14:51.375Z,64.20
2018-09-15T21:17:19.544Z,64.40
2018-09-15T21:19:47.590Z,65.20
2018-09-15T21:22:15.694Z,64.80
2018-09-15T21:24:43.754Z,64.90
2018-09-15T21:27:12.654Z,65.00
2018-09-15T21:29:40.719Z,65.30
2018-09-15T21:32:08.822Z,65.70
2018-09-15T21:34:37.275Z,65.90
2018-09-15T21:37:05.828Z,66.40
2018-09-15T21:39:33.943Z,67.00
2018-09-15T21:42:02.102Z,67.20
2018-09-15T21:44:30.696Z,67.20
2018-09-15T21:46:59.047Z,67.50
2018-09-15T21:49:27.287Z,67.80
2018-09-15T21:51:55.445Z,67.90
2018-09-15T21:54:23.427Z,67.80
2018-09-15T21:56:51.470Z,67.70
2018-09-15T21:59:19.584Z,67.70
2018-09-15T22:01:47.595Z,67.50
2018-09-15T22:04:21.833Z,67.10
2018-09-15T22:06:51.588Z,67.20
2018-09-15T22:09:19.743Z,67.30
2018-09-15T22:11:47.746Z,68.20
2018-09-15T22:14:15.903Z,67.20
2018-09-15T22:16:44.290Z,67.20
2018-09-15T22:19:12.548Z,67.40
2018-09-15T22:21:40.699Z,67.40
2018-09-15T22:24:08.690Z,67.70
2018-09-15T22:26:36.939Z,68.00
2018-09-15T22:29:05.292Z,68.80
2018-09-15T22:31:33.259Z,68.40
2018-09-15T22:34:10.611Z,68.70
2018-09-15T22:36:38.229Z,68.90
2018-09-15T22:39:07.308Z,69.10
2018-09-15T22:41:35.276Z,69.30
2018-09-15T22:44:02.914Z,70.10
2018-09-15T22:46:30.471Z,69.50
2018-09-15T22:48:58.249Z,69.30
2018-09-15T22:51:25.976Z,69.50
2018-09-15T22:53:53.591Z,71.30
2018-09-15T22:56:21.332Z,69.50
2018-09-15T22:58:49.244Z,70.40
2018-09-15T23:01:16.918Z,69.90
2018-09-15T23:03:44.556Z,70.50
2018-09-15T23:06:12.678Z,70.50
2018-09-15T23:08:40.394Z,71.10
2018-09-15T23:11:08.484Z,70.90
2018-09-15T23:13:36.100Z,71.10
2018-09-15T23:16:03.816Z,71.40
2018-09-15T23:18:31.460Z,71.60
2018-09-15T23:20:59.163Z,71.50
2018-09-15T23:23:26.769Z,71.60
2018-09-15T23:25:54.485Z,71.80
2018-09-15T23:28:22.289Z,71.80
2018-09-15T23:30:49.888Z,72.10
2018-09-15T23:33:17.536Z,72.40
2018-09-15T23:35:45.119Z,72.60
2018-09-15T23:38:12.771Z,72.50
2018-09-15T23:40:40.354Z,72.60
2018-09-15T23:43:08.115Z,72.90
2018-09-15T23:45:35.732Z,72.90
2018-09-15T23:48:03.381Z,73.10
2018-09-15T23:50:31.164Z,73.30
2018-09-15T23:52:58.830Z,73.60
2018-09-15T23:55:26.431Z,73.70
2018-09-15T23:57:54.158Z,73.70
